sensor_id;sensor_type;location;lat;lon;timestamp;pressure;altitude;pressure_sealevel;temperature;humidity
15750;BME280;7976;52.526;13.326;2024-01-07T00:01:31;101386.03;;;0.37;74.91
15750;BME280;7976;52.526;13.326;2024-01-07T00:03:58;101383.47;;;0.39;75.16
15750;BME280;7976;52.526;13.326;2024-01-07T00:06:25;101392.03;;;0.38;75.11
15750;BME280;7976;52.526;13.326;2024-01-07T00:08:52;101384.31;;;0.36;75.28
15750;BME280;7976;52.526;13.326;2024-01-07T00:11:19;101392.09;;;0.41;75.53
15750;BME280;7976;52.526;13.326;2024-01-07T00:13:46;101393.75;;;0.39;75.21
15750;BME280;7976;52.526;13.326;2024-01-07T00:16:14;101385.94;;;0.31;75.34
15750;BME280;7976;52.526;13.326;2024-01-07T00:18:41;101392.00;;;0.35;75.38
15750;BME280;7976;52.526;13.326;2024-01-07T00:21:08;101397.09;;;0.30;75.04
15750;BME280;7976;52.526;13.326;2024-01-07T00:23:35;101406.50;;;0.30;75.03
15750;BME280;7976;52.526;13.326;2024-01-07T00:26:02;101405.59;;;0.25;75.05
15750;BME280;7976;52.526;13.326;2024-01-07T00:28:29;101406.41;;;0.24;74.98
15750;BME280;7976;52.526;13.326;2024-01-07T00:30:56;101410.69;;;0.22;75.01
15750;BME280;7976;52.526;13.326;2024-01-07T00:33:28;101419.19;;;0.18;74.71
15750;BME280;7976;52.526;13.326;2024-01-07T00:35:55;101421.69;;;0.13;74.58
15750;BME280;7976;52.526;13.326;2024-01-07T00:38:22;101428.56;;;0.14;74.44
15750;BME280;7976;52.526;13.326;2024-01-07T00:40:49;101427.69;;;0.14;74.46
15750;BME280;7976;52.526;13.326;2024-01-07T00:43:16;101429.38;;;0.12;73.94
15750;BME280;7976;52.526;13.326;2024-01-07T00:45:46;101441.41;;;0.13;74.08
15750;BME280;7976;52.526;13.326;2024-01-07T00:48:15;101436.16;;;0.07;73.69
15750;BME280;7976;52.526;13.326;2024-01-07T00:50:44;101443.03;;;0.08;73.36
15750;BME280;7976;52.526;13.326;2024-01-07T00:53:14;101448.16;;;0.08;73.12
15750;BME280;7976;52.526;13.326;2024-01-07T00:55:43;101451.53;;;0.03;73.16
15750;BME280;7976;52.526;13.326;2024-01-07T00:58:10;101461.91;;;0.08;72.75
15750;BME280;7976;52.526;13.326;2024-01-07T01:00:41;101462.69;;;0.04;72.55
15750;BME280;7976;52.526;13.326;2024-01-07T01:03:08;101462.63;;;0.01;72.54
15750;BME280;7976;52.526;13.326;2024-01-07T01:05:37;101468.63;;;0.00;72.57
15750;BME280;7976;52.526;13.326;2024-01-07T01:08:07;101476.28;;;-0.02;72.73
15750;BME280;7976;52.526;13.326;2024-01-07T01:10:34;101465.97;;;-0.05;72.37
15750;BME280;7976;52.526;13.326;2024-01-07T01:13:01;101474.53;;;-0.04;72.31
15750;BME280;7976;52.526;13.326;2024-01-07T01:15:28;101474.53;;;-0.04;72.21
15750;BME280;7976;52.526;13.326;2024-01-07T01:17:55;101478.81;;;-0.05;72.18
15750;BME280;7976;52.526;13.326;2024-01-07T01:20:22;101490.78;;;-0.07;72.01
15750;BME280;7976;52.526;13.326;2024-01-07T01:22:49;101485.59;;;-0.10;71.97
15750;BME280;7976;52.526;13.326;2024-01-07T01:25:18;101494.91;;;-0.15;72.01
15750;BME280;7976;52.526;13.326;2024-01-07T01:27:45;101479.41;;;-0.21;72.12
15750;BME280;7976;52.526;13.326;2024-01-07T01:30:12;101517.16;;;-0.17;71.76
15750;BME280;7976;52.526;13.326;2024-01-07T01:32:41;101495.63;;;-0.22;71.68
15750;BME280;7976;52.526;13.326;2024-01-07T01:35:09;101496.38;;;-0.29;71.61
15750;BME280;7976;52.526;13.326;2024-01-07T01:37:38;101507.50;;;-0.30;71.90
15750;BME280;7976;52.526;13.326;2024-01-07T01:40:09;101511.69;;;-0.33;72.10
15750;BME280;7976;52.526;13.326;2024-01-07T01:42:38;101502.19;;;-0.39;71.81
15750;BME280;7976;52.526;13.326;2024-01-07T01:45:06;101509.06;;;-0.38;71.85
15750;BME280;7976;52.526;13.326;2024-01-07T01:47:33;101513.31;;;-0.38;71.95
15750;BME280;7976;52.526;13.326;2024-01-07T01:50:00;101510.72;;;-0.40;71.95
15750;BME280;7976;52.526;13.326;2024-01-07T01:52:28;101521.91;;;-0.38;72.02
15750;BME280;7976;52.526;13.326;2024-01-07T01:54:55;101527.88;;;-0.39;71.82
15750;BME280;7976;52.526;13.326;2024-01-07T01:57:28;101536.41;;;-0.40;72.16
15750;BME280;7976;52.526;13.326;2024-01-07T02:00:02;101525.22;;;-0.43;71.79
15750;BME280;7976;52.526;13.326;2024-01-07T02:02:31;101515.59;;;-0.53;71.90
15750;BME280;7976;52.526;13.326;2024-01-07T02:05:00;101519.09;;;-0.50;71.85
15750;BME280;7976;52.526;13.326;2024-01-07T02:07:31;101536.25;;;-0.49;71.83
15750;BME280;7976;52.526;13.326;2024-01-07T02:09:59;101541.31;;;-0.52;71.96
15750;BME280;7976;52.526;13.326;2024-01-07T02:12:26;101530.03;;;-0.58;71.52
15750;BME280;7976;52.526;13.326;2024-01-07T02:14:53;101519.78;;;-0.57;71.74
15750;BME280;7976;52.526;13.326;2024-01-07T02:17:22;101521.44;;;-0.60;71.92
15750;BME280;7976;52.526;13.326;2024-01-07T02:19:49;101525.66;;;-0.64;71.85
15750;BME280;7976;52.526;13.326;2024-01-07T02:22:16;101523.13;;;-0.62;71.57
15750;BME280;7976;52.526;13.326;2024-01-07T02:24:46;101540.34;;;-0.57;71.60
15750;BME280;7976;52.526;13.326;2024-01-07T02:27:15;101532.59;;;-0.58;71.94
15750;BME280;7976;52.526;13.326;2024-01-07T02:29:41;101536.09;;;-0.56;71.89
15750;BME280;7976;52.526;13.326;2024-01-07T02:32:11;101542.81;;;-0.63;71.83
15750;BME280;7976;52.526;13.326;2024-01-07T02:34:38;101531.47;;;-0.72;71.77
15750;BME280;7976;52.526;13.326;2024-01-07T02:37:08;101531.31;;;-0.80;71.99
15750;BME280;7976;52.526;13.326;2024-01-07T02:39:34;101533.06;;;-0.79;72.10
15750;BME280;7976;52.526;13.326;2024-01-07T02:42:05;101545.03;;;-0.78;72.33
15750;BME280;7976;52.526;13.326;2024-01-07T02:44:35;101537.09;;;-0.88;71.96
15750;BME280;7976;52.526;13.326;2024-01-07T02:47:02;101542.22;;;-0.90;72.28
15750;BME280;7976;52.526;13.326;2024-01-07T02:49:32;101541.31;;;-0.92;72.29
15750;BME280;7976;52.526;13.326;2024-01-07T02:51:59;101554.13;;;-0.92;72.61
15750;BME280;7976;52.526;13.326;2024-01-07T02:54:27;101558.44;;;-0.92;72.35
15750;BME280;7976;52.526;13.326;2024-01-07T02:56:54;101557.44;;;-0.99;72.45
15750;BME280;7976;52.526;13.326;2024-01-07T02:59:25;101560.78;;;-1.01;72.37
15750;BME280;7976;52.526;13.326;2024-01-07T03:01:54;101558.19;;;-1.03;72.19
15750;BME280;7976;52.526;13.326;2024-01-07T03:04:22;101554.66;;;-1.06;72.05
15750;BME280;7976;52.526;13.326;2024-01-07T03:06:52;101558.16;;;-1.04;72.30
15750;BME280;7976;52.526;13.326;2024-01-07T03:09:19;101563.25;;;-1.06;72.28
15750;BME280;7976;52.526;13.326;2024-01-07T03:11:48;101564.06;;;-1.07;72.16
15750;BME280;7976;52.526;13.326;2024-01-07T03:14:15;101556.25;;;-1.11;72.02
15750;BME280;7976;52.526;13.326;2024-01-07T03:16:51;101555.50;;;-1.09;72.25
15750;BME280;7976;52.526;13.326;2024-01-07T03:19:18;101564.00;;;-1.10;72.37
15750;BME280;7976;52.526;13.326;2024-01-07T03:21:48;101582.94;;;-1.05;72.22
15750;BME280;7976;52.526;13.326;2024-01-07T03:24:15;101570.94;;;-1.06;71.91
15750;BME280;7976;52.526;13.326;2024-01-07T03:26:43;101574.22;;;-1.11;71.95
15750;BME280;7976;52.526;13.326;2024-01-07T03:29:10;101574.25;;;-1.10;71.95
15750;BME280;7976;52.526;13.326;2024-01-07T03:31:39;101582.81;;;-1.11;72.07
15750;BME280;7976;52.526;13.326;2024-01-07T03:34:07;101576.53;;;-1.22;72.09
15750;BME280;7976;52.526;13.326;2024-01-07T03:36:38;101586.06;;;-1.18;72.04
15750;BME280;7976;52.526;13.326;2024-01-07T03:39:05;101577.31;;;-1.26;72.32
15750;BME280;7976;52.526;13.326;2024-01-07T03:41:32;101600.47;;;-1.23;72.21
15750;BME280;7976;52.526;13.326;2024-01-07T03:43:59;101597.03;;;-1.23;72.51
15750;BME280;7976;52.526;13.326;2024-01-07T03:46:29;101593.50;;;-1.29;72.29
15750;BME280;7976;52.526;13.326;2024-01-07T03:48:59;101596.97;;;-1.27;72.53
15750;BME280;7976;52.526;13.326;2024-01-07T03:51:31;101608.09;;;-1.26;72.31
15750;BME280;7976;52.526;13.326;2024-01-07T03:53:58;101622.59;;;-1.28;72.56
15750;BME280;7976;52.526;13.326;2024-01-07T03:56:25;101618.22;;;-1.32;72.40
15750;BME280;7976;52.526;13.326;2024-01-07T03:58:52;101607.88;;;-1.35;72.53
15750;BME280;7976;52.526;13.326;2024-01-07T04:01:19;101630.31;;;-1.27;72.48
15750;BME280;7976;52.526;13.326;2024-01-07T04:03:48;101631.94;;;-1.30;72.58
15750;BME280;7976;52.526;13.326;2024-01-07T04:06:15;101631.13;;;-1.29;72.31
15750;BME280;7976;52.526;13.326;2024-01-07T04:08:44;101636.19;;;-1.31;72.37
15750;BME280;7976;52.526;13.326;2024-01-07T04:11:11;101621.47;;;-1.39;72.08
15750;BME280;7976;52.526;13.326;2024-01-07T04:13:38;101625.75;;;-1.38;72.06
15750;BME280;7976;52.526;13.326;2024-01-07T04:16:05;101640.53;;;-1.30;72.23
15750;BME280;7976;52.526;13.326;2024-01-07T04:18:32;101649.97;;;-1.27;72.21
15750;BME280;7976;52.526;13.326;2024-01-07T04:20:59;101649.94;;;-1.29;72.22
15750;BME280;7976;52.526;13.326;2024-01-07T04:23:26;101651.59;;;-1.31;71.90
15750;BME280;7976;52.526;13.326;2024-01-07T04:25:55;101661.09;;;-1.28;71.99
15750;BME280;7976;52.526;13.326;2024-01-07T04:28:22;101652.47;;;-1.30;71.75
15750;BME280;7976;52.526;13.326;2024-01-07T04:30:49;101657.59;;;-1.30;71.66
15750;BME280;7976;52.526;13.326;2024-01-07T04:33:16;101654.13;;;-1.32;71.54
15750;BME280;7976;52.526;13.326;2024-01-07T04:35:43;101659.13;;;-1.38;71.35
15750;BME280;7976;52.526;13.326;2024-01-07T04:38:10;101652.25;;;-1.39;71.45
15750;BME280;7976;52.526;13.326;2024-01-07T04:40:37;101657.22;;;-1.45;71.64
15750;BME280;7976;52.526;13.326;2024-01-07T04:43:06;101659.97;;;-1.39;71.45
15750;BME280;7976;52.526;13.326;2024-01-07T04:45:33;101663.28;;;-1.42;71.77
15750;BME280;7976;52.526;13.326;2024-01-07T04:48:00;101661.72;;;-1.37;71.65
15750;BME280;7976;52.526;13.326;2024-01-07T04:50:27;101661.72;;;-1.37;71.62
15750;BME280;7976;52.526;13.326;2024-01-07T04:52:54;101659.13;;;-1.38;71.30
15750;BME280;7976;52.526;13.326;2024-01-07T04:55:21;101665.97;;;-1.37;71.46
15750;BME280;7976;52.526;13.326;2024-01-07T04:57:48;101656.50;;;-1.40;71.43
15750;BME280;7976;52.526;13.326;2024-01-07T05:00:18;101664.31;;;-1.35;71.42
15750;BME280;7976;52.526;13.326;2024-01-07T05:02:45;101662.53;;;-1.39;71.18
15750;BME280;7976;52.526;13.326;2024-01-07T05:05:12;101675.47;;;-1.35;71.22
15750;BME280;7976;52.526;13.326;2024-01-07T05:07:39;101671.94;;;-1.38;71.35
15750;BME280;7976;52.526;13.326;2024-01-07T05:10:08;101673.00;;;-1.30;71.51
15750;BME280;7976;52.526;13.326;2024-01-07T05:12:35;101673.06;;;-1.27;71.42
15750;BME280;7976;52.526;13.326;2024-01-07T05:15:02;101675.00;;;-1.18;71.35
15750;BME280;7976;52.526;13.326;2024-01-07T05:17:31;101680.19;;;-1.17;71.19
15750;BME280;7976;52.526;13.326;2024-01-07T05:19:58;101682.75;;;-1.17;71.11
15750;BME280;7976;52.526;13.326;2024-01-07T05:22:25;101685.41;;;-1.14;70.84
15750;BME280;7976;52.526;13.326;2024-01-07T05:24:51;101680.94;;;-1.21;71.09
15750;BME280;7976;52.526;13.326;2024-01-07T05:27:18;101688.88;;;-1.12;71.14
15750;BME280;7976;52.526;13.326;2024-01-07T05:29:45;101692.41;;;-1.07;71.32
15750;BME280;7976;52.526;13.326;2024-01-07T05:32:13;101692.41;;;-1.07;71.00
15750;BME280;7976;52.526;13.326;2024-01-07T05:34:41;101695.00;;;-1.05;70.95
15750;BME280;7976;52.526;13.326;2024-01-07T05:37:08;101700.16;;;-1.05;71.15
15750;BME280;7976;52.526;13.326;2024-01-07T05:39:35;101705.34;;;-1.04;70.88
15750;BME280;7976;52.526;13.326;2024-01-07T05:42:03;101702.84;;;-1.01;70.98
15750;BME280;7976;52.526;13.326;2024-01-07T05:44:30;101704.50;;;-1.03;70.84
15750;BME280;7976;52.526;13.326;2024-01-07T05:46:57;101725.19;;;-0.97;70.87
15750;BME280;7976;52.526;13.326;2024-01-07T05:49:24;101712.44;;;-0.94;70.82
15750;BME280;7976;52.526;13.326;2024-01-07T05:51:52;101711.50;;;-0.97;70.90
15750;BME280;7976;52.526;13.326;2024-01-07T05:54:20;101707.19;;;-0.98;70.60
15750;BME280;7976;52.526;13.326;2024-01-07T05:56:48;101721.88;;;-0.93;70.72
15750;BME280;7976;52.526;13.326;2024-01-07T05:59:15;101701.31;;;-0.94;70.92
15750;BME280;7976;52.526;13.326;2024-01-07T06:01:43;101712.50;;;-0.92;70.67
15750;BME280;7976;52.526;13.326;2024-01-07T06:04:10;101728.00;;;-0.88;70.58
15750;BME280;7976;52.526;13.326;2024-01-07T06:06:37;101735.69;;;-0.88;70.31
15750;BME280;7976;52.526;13.326;2024-01-07T06:09:06;101728.00;;;-0.88;70.67
15750;BME280;7976;52.526;13.326;2024-01-07T06:11:33;101735.84;;;-0.82;70.53
15750;BME280;7976;52.526;13.326;2024-01-07T06:14:00;101747.00;;;-0.81;70.63
15750;BME280;7976;52.526;13.326;2024-01-07T06:16:27;101741.88;;;-0.80;70.32
15750;BME280;7976;52.526;13.326;2024-01-07T06:18:54;101744.47;;;-0.80;70.33
15750;BME280;7976;52.526;13.326;2024-01-07T06:21:21;101731.66;;;-0.78;70.71
15750;BME280;7976;52.526;13.326;2024-01-07T06:23:48;101739.38;;;-0.77;70.53
15750;BME280;7976;52.526;13.326;2024-01-07T06:26:16;101728.09;;;-0.83;70.39
15750;BME280;7976;52.526;13.326;2024-01-07T06:28:44;101724.59;;;-0.87;70.27
15750;BME280;7976;52.526;13.326;2024-01-07T06:31:11;101743.50;;;-0.83;70.34
15750;BME280;7976;52.526;13.326;2024-01-07T06:33:38;101751.19;;;-0.85;70.71
15750;BME280;7976;52.526;13.326;2024-01-07T06:36:06;101759.78;;;-0.83;70.75
15750;BME280;7976;52.526;13.326;2024-01-07T06:38:33;101768.34;;;-0.84;70.80
15750;BME280;7976;52.526;13.326;2024-01-07T06:41:00;101762.22;;;-0.89;70.79
15750;BME280;7976;52.526;13.326;2024-01-07T06:43:31;101750.19;;;-0.90;70.89
15750;BME280;7976;52.526;13.326;2024-01-07T06:45:59;101765.72;;;-0.85;70.82
15750;BME280;7976;52.526;13.326;2024-01-07T06:48:26;101769.13;;;-0.86;71.09
15750;BME280;7976;52.526;13.326;2024-01-07T06:50:53;101765.66;;;-0.87;70.97
15750;BME280;7976;52.526;13.326;2024-01-07T06:53:21;101775.19;;;-0.83;71.51
15750;BME280;7976;52.526;13.326;2024-01-07T06:55:48;101771.78;;;-0.82;71.38
15750;BME280;7976;52.526;13.326;2024-01-07T06:58:16;101773.56;;;-0.81;71.13
15750;BME280;7976;52.526;13.326;2024-01-07T07:00:44;101772.56;;;-0.86;71.47
15750;BME280;7976;52.526;13.326;2024-01-07T07:03:12;101772.59;;;-0.84;71.56
15750;BME280;7976;52.526;13.326;2024-01-07T07:05:39;101789.03;;;-0.78;71.16
15750;BME280;7976;52.526;13.326;2024-01-07T07:08:06;101773.56;;;-0.81;71.26
15750;BME280;7976;52.526;13.326;2024-01-07T07:10:33;101792.56;;;-0.74;71.34
15750;BME280;7976;52.526;13.326;2024-01-07T07:13:00;101794.25;;;-0.75;71.24
15750;BME280;7976;52.526;13.326;2024-01-07T07:15:27;101793.22;;;-0.81;71.17
15750;BME280;7976;52.526;13.326;2024-01-07T07:17:56;101807.88;;;-0.77;71.53
15750;BME280;7976;52.526;13.326;2024-01-07T07:20:24;101804.50;;;-0.75;71.74
15750;BME280;7976;52.526;13.326;2024-01-07T07:22:51;101810.59;;;-0.71;71.56
15750;BME280;7976;52.526;13.326;2024-01-07T07:25:18;101802.94;;;-0.70;71.30
15750;BME280;7976;52.526;13.326;2024-01-07T07:27:45;101799.47;;;-0.70;71.19
15750;BME280;7976;52.526;13.326;2024-01-07T07:30:12;101814.06;;;-0.71;70.87
15750;BME280;7976;52.526;13.326;2024-01-07T07:32:39;101813.22;;;-0.70;70.96
15750;BME280;7976;52.526;13.326;2024-01-07T07:35:08;101809.81;;;-0.69;71.11
15750;BME280;7976;52.526;13.326;2024-01-07T07:37:35;101804.69;;;-0.69;71.06
15750;BME280;7976;52.526;13.326;2024-01-07T07:40:02;101820.09;;;-0.69;71.00
15750;BME280;7976;52.526;13.326;2024-01-07T07:42:29;101821.81;;;-0.68;71.11
15750;BME280;7976;52.526;13.326;2024-01-07T07:44:56;101827.94;;;-0.63;71.13
15750;BME280;7976;52.526;13.326;2024-01-07T07:47:23;101831.41;;;-0.62;71.08
15750;BME280;7976;52.526;13.326;2024-01-07T07:49:50;101812.53;;;-0.63;70.98
15750;BME280;7976;52.526;13.326;2024-01-07T07:52:18;101823.72;;;-0.61;70.89
15750;BME280;7976;52.526;13.326;2024-01-07T07:54:47;101825.53;;;-0.57;70.85
15750;BME280;7976;52.526;13.326;2024-01-07T07:57:15;101838.41;;;-0.55;70.48
15750;BME280;7976;52.526;13.326;2024-01-07T07:59:41;101840.94;;;-0.57;70.55
15750;BME280;7976;52.526;13.326;2024-01-07T08:02:08;101839.28;;;-0.55;70.30
15750;BME280;7976;52.526;13.326;2024-01-07T08:04:35;101847.09;;;-0.50;70.15
15750;BME280;7976;52.526;13.326;2024-01-07T08:07:02;101846.34;;;-0.46;70.29
15750;BME280;7976;52.526;13.326;2024-01-07T08:09:30;101848.16;;;-0.44;70.01
15750;BME280;7976;52.526;13.326;2024-01-07T08:11:57;101860.16;;;-0.43;70.43
15750;BME280;7976;52.526;13.326;2024-01-07T08:14:24;101851.59;;;-0.42;70.75
15750;BME280;7976;52.526;13.326;2024-01-07T08:16:51;101848.28;;;-0.38;70.88
15750;BME280;7976;52.526;13.326;2024-01-07T08:19:18;101850.94;;;-0.35;70.99
15750;BME280;7976;52.526;13.326;2024-01-07T08:21:45;101853.50;;;-0.35;71.08
15750;BME280;7976;52.526;13.326;2024-01-07T08:24:14;101853.50;;;-0.35;71.02
15750;BME280;7976;52.526;13.326;2024-01-07T08:26:42;101856.13;;;-0.32;70.84
15750;BME280;7976;52.526;13.326;2024-01-07T08:29:09;101863.88;;;-0.30;70.95
15750;BME280;7976;52.526;13.326;2024-01-07T08:31:37;101868.25;;;-0.28;71.01
15750;BME280;7976;52.526;13.326;2024-01-07T08:34:04;101867.41;;;-0.27;71.19
15750;BME280;7976;52.526;13.326;2024-01-07T08:36:31;101862.44;;;-0.21;71.31
15750;BME280;7976;52.526;13.326;2024-01-07T08:38:58;101864.25;;;-0.15;71.11
15750;BME280;7976;52.526;13.326;2024-01-07T08:41:26;101867.78;;;-0.12;71.32
15750;BME280;7976;52.526;13.326;2024-01-07T08:43:54;101860.19;;;-0.07;71.41
15750;BME280;7976;52.526;13.326;2024-01-07T08:46:21;101853.44;;;-0.04;71.30
15750;BME280;7976;52.526;13.326;2024-01-07T08:48:48;101863.81;;;0.01;71.39
15750;BME280;7976;52.526;13.326;2024-01-07T08:51:14;101866.41;;;0.03;70.99
15750;BME280;7976;52.526;13.326;2024-01-07T08:53:41;101860.44;;;0.03;71.10
15750;BME280;7976;52.526;13.326;2024-01-07T08:56:08;101859.59;;;0.03;71.16
15750;BME280;7976;52.526;13.326;2024-01-07T08:58:35;101867.34;;;0.05;71.41
15750;BME280;7976;52.526;13.326;2024-01-07T09:01:04;101870.81;;;0.07;71.48
15750;BME280;7976;52.526;13.326;2024-01-07T09:03:31;101868.16;;;0.03;71.27
15750;BME280;7976;52.526;13.326;2024-01-07T09:05:57;101874.09;;;0.01;71.46
15750;BME280;7976;52.526;13.326;2024-01-07T09:08:24;101867.22;;;0.00;71.77
15750;BME280;7976;52.526;13.326;2024-01-07T09:10:51;101880.94;;;0.00;71.63
15750;BME280;7976;52.526;13.326;2024-01-07T09:13:18;101885.31;;;0.03;71.87
15750;BME280;7976;52.526;13.326;2024-01-07T09:15:45;101881.06;;;0.05;71.89
15750;BME280;7976;52.526;13.326;2024-01-07T09:18:14;101879.53;;;0.13;71.93
15750;BME280;7976;52.526;13.326;2024-01-07T09:20:41;101885.63;;;0.17;72.25
15750;BME280;7976;52.526;13.326;2024-01-07T09:23:08;101879.63;;;0.18;72.11
15750;BME280;7976;52.526;13.326;2024-01-07T09:25:35;101889.91;;;0.16;72.45
15750;BME280;7976;52.526;13.326;2024-01-07T09:28:03;101888.97;;;0.14;72.73
15750;BME280;7976;52.526;13.326;2024-01-07T09:30:31;101879.66;;;0.19;72.96
15750;BME280;7976;52.526;13.326;2024-01-07T09:32:58;101883.94;;;0.19;72.82
15750;BME280;7976;52.526;13.326;2024-01-07T09:35:26;101888.06;;;0.12;72.96
15750;BME280;7976;52.526;13.326;2024-01-07T09:37:53;101885.47;;;0.11;73.19
15750;BME280;7976;52.526;13.326;2024-01-07T09:40:20;101882.16;;;0.15;73.60
15750;BME280;7976;52.526;13.326;2024-01-07T09:42:47;101882.34;;;0.24;73.64
15750;BME280;7976;52.526;13.326;2024-01-07T09:45:14;101880.69;;;0.26;73.38
15750;BME280;7976;52.526;13.326;2024-01-07T09:47:44;101886.69;;;0.26;73.52
15750;BME280;7976;52.526;13.326;2024-01-07T09:50:11;101888.28;;;0.21;73.62
15750;BME280;7976;52.526;13.326;2024-01-07T09:52:44;101898.50;;;0.17;73.95
15750;BME280;7976;52.526;13.326;2024-01-07T09:55:20;101885.53;;;0.14;74.34
15750;BME280;7976;52.526;13.326;2024-01-07T09:57:48;101889.94;;;0.18;74.64
15750;BME280;7976;52.526;13.326;2024-01-07T10:00:16;101888.25;;;0.20;74.62
15750;BME280;7976;52.526;13.326;2024-01-07T10:02:43;101887.38;;;0.19;74.59
15750;BME280;7976;52.526;13.326;2024-01-07T10:05:10;101892.53;;;0.19;74.86
15750;BME280;7976;52.526;13.326;2024-01-07T10:07:39;101884.69;;;0.13;74.81
15750;BME280;7976;52.526;13.326;2024-01-07T10:10:14;101887.22;;;0.12;75.28
15750;BME280;7976;52.526;13.326;2024-01-07T10:12:41;101885.66;;;0.18;75.26
15750;BME280;7976;52.526;13.326;2024-01-07T10:15:08;101879.66;;;0.19;74.85
15750;BME280;7976;52.526;13.326;2024-01-07T10:17:36;101885.53;;;0.14;74.91
15750;BME280;7976;52.526;13.326;2024-01-07T10:20:06;101888.03;;;0.11;75.44
15750;BME280;7976;52.526;13.326;2024-01-07T10:22:36;101894.09;;;0.13;75.84
15750;BME280;7976;52.526;13.326;2024-01-07T10:25:06;101885.63;;;0.17;75.89
15750;BME280;7976;52.526;13.326;2024-01-07T10:27:34;101881.28;;;0.16;76.26
15750;BME280;7976;52.526;13.326;2024-01-07T10:30:01;101877.78;;;0.12;76.37
15750;BME280;7976;52.526;13.326;2024-01-07T10:32:29;101875.38;;;0.18;76.82
15750;BME280;7976;52.526;13.326;2024-01-07T10:35:02;101875.53;;;0.26;76.98
15750;BME280;7976;52.526;13.326;2024-01-07T10:37:30;101874.00;;;0.34;76.82
15750;BME280;7976;52.526;13.326;2024-01-07T10:39:58;101884.38;;;0.37;76.74
15750;BME280;7976;52.526;13.326;2024-01-07T10:42:31;101876.63;;;0.35;76.75
15750;BME280;7976;52.526;13.326;2024-01-07T10:44:59;101862.91;;;0.36;76.86
15750;BME280;7976;52.526;13.326;2024-01-07T10:47:31;101860.44;;;0.41;77.12
15750;BME280;7976;52.526;13.326;2024-01-07T10:49:59;101857.81;;;0.39;76.92
15750;BME280;7976;52.526;13.326;2024-01-07T10:52:27;101876.84;;;0.46;76.77
15750;BME280;7976;52.526;13.326;2024-01-07T10:54:57;101883.78;;;0.48;76.97
15750;BME280;7976;52.526;13.326;2024-01-07T10:57:42;101876.16;;;0.53;76.84
15750;BME280;7976;52.526;13.326;2024-01-07T11:00:12;101866.75;;;0.55;76.84
15750;BME280;7976;52.526;13.326;2024-01-07T11:02:59;101859.09;;;0.58;76.81
15750;BME280;7976;52.526;13.326;2024-01-07T11:05:42;101864.44;;;0.67;76.49
15750;BME280;7976;52.526;13.326;2024-01-07T11:08:23;101860.16;;;0.67;76.62
15750;BME280;7976;52.526;13.326;2024-01-07T11:10:59;101864.44;;;0.67;76.29
15750;BME280;7976;52.526;13.326;2024-01-07T11:13:36;101859.31;;;0.67;76.45
15750;BME280;7976;52.526;13.326;2024-01-07T11:16:05;101857.66;;;0.70;76.44
15750;BME280;7976;52.526;13.326;2024-01-07T11:18:38;101876.53;;;0.71;76.51
15750;BME280;7976;52.526;13.326;2024-01-07T11:21:06;101868.00;;;0.72;76.50
15750;BME280;7976;52.526;13.326;2024-01-07T11:23:33;101865.47;;;0.75;76.29
15750;BME280;7976;52.526;13.326;2024-01-07T11:26:04;101874.91;;;0.74;76.54
15750;BME280;7976;52.526;13.326;2024-01-07T11:28:49;101868.00;;;0.72;76.76
15750;BME280;7976;52.526;13.326;2024-01-07T11:31:18;101867.13;;;0.73;76.92
15750;BME280;7976;52.526;13.326;2024-01-07T11:33:47;101869.66;;;0.70;77.16
15750;BME280;7976;52.526;13.326;2024-01-07T11:36:15;101864.56;;;0.73;77.31
15750;BME280;7976;52.526;13.326;2024-01-07T11:38:44;101864.69;;;0.79;77.28
15750;BME280;7976;52.526;13.326;2024-01-07T11:41:12;101860.44;;;0.81;77.34
15750;BME280;7976;52.526;13.326;2024-01-07T11:43:54;101852.66;;;0.78;77.29
15750;BME280;7976;52.526;13.326;2024-01-07T11:46:22;101853.53;;;0.78;77.39
15750;BME280;7976;52.526;13.326;2024-01-07T11:48:52;101850.97;;;0.78;77.59
15750;BME280;7976;52.526;13.326;2024-01-07T11:51:19;101844.16;;;0.82;77.94
15750;BME280;7976;52.526;13.326;2024-01-07T11:53:46;101841.63;;;0.83;77.68
15750;BME280;7976;52.526;13.326;2024-01-07T11:56:13;101843.25;;;0.80;77.63
15750;BME280;7976;52.526;13.326;2024-01-07T11:58:40;101840.63;;;0.77;78.25
15750;BME280;7976;52.526;13.326;2024-01-07T12:01:09;101832.03;;;0.76;78.50
15750;BME280;7976;52.526;13.326;2024-01-07T12:03:37;101838.06;;;0.77;78.61
15750;BME280;7976;52.526;13.326;2024-01-07T12:06:04;101825.19;;;0.77;78.60
15750;BME280;7976;52.526;13.326;2024-01-07T12:08:31;101826.13;;;0.80;78.89
15750;BME280;7976;52.526;13.326;2024-01-07T12:10:59;101821.84;;;0.84;79.04
15750;BME280;7976;52.526;13.326;2024-01-07T12:13:27;101821.00;;;0.82;78.90
15750;BME280;7976;52.526;13.326;2024-01-07T12:15:54;101833.00;;;0.81;79.22
15750;BME280;7976;52.526;13.326;2024-01-07T12:18:22;101831.38;;;0.86;79.47
15750;BME280;7976;52.526;13.326;2024-01-07T12:20:56;101830.63;;;0.92;79.46
15750;BME280;7976;52.526;13.326;2024-01-07T12:23:24;101830.63;;;0.92;79.28
15750;BME280;7976;52.526;13.326;2024-01-07T12:25:51;101832.31;;;0.90;79.40
15750;BME280;7976;52.526;13.326;2024-01-07T12:28:18;101833.09;;;0.87;79.57
15750;BME280;7976;52.526;13.326;2024-01-07T12:30:47;101842.56;;;0.87;79.97
15750;BME280;7976;52.526;13.326;2024-01-07T12:33:17;101836.56;;;0.89;80.29
15750;BME280;7976;52.526;13.326;2024-01-07T12:35:47;101841.00;;;0.95;80.42
15750;BME280;7976;52.526;13.326;2024-01-07T12:38:14;101834.13;;;0.95;80.22
15750;BME280;7976;52.526;13.326;2024-01-07T12:40:41;101837.66;;;1.00;80.60
15750;BME280;7976;52.526;13.326;2024-01-07T12:43:08;101844.56;;;1.03;80.37
15750;BME280;7976;52.526;13.326;2024-01-07T12:45:35;101848.97;;;1.07;80.51
15750;BME280;7976;52.526;13.326;2024-01-07T12:48:02;101854.03;;;1.04;80.55
15750;BME280;7976;52.526;13.326;2024-01-07T12:50:29;101854.94;;;1.06;80.60
15750;BME280;7976;52.526;13.326;2024-01-07T12:52:58;101849.88;;;1.10;80.92
15750;BME280;7976;52.526;13.326;2024-01-07T12:55:26;101855.94;;;1.14;80.97
15750;BME280;7976;52.526;13.326;2024-01-07T12:57:53;101861.16;;;1.15;80.78
15750;BME280;7976;52.526;13.326;2024-01-07T13:00:21;101856.84;;;1.16;81.00